Time,TemperatureF,DewpointF,PressureIn,WindDirection,WindDirectionDegrees,WindSpeedMPH,WindSpeedGustMPH,Humidity,HourlyPrecipIn,Conditions,Clouds,dailyrainin,SolarRadiationWatts/m^2,SoftwareType,DateUTC
2013-04-02 00:02:00,22.0,5.0,-100.00,NW,315,4.0,7.0,47,0.00,,,0.00,0.000000,,2013-04-02 05:02:00,
2013-04-02 00:23:00,22.0,5.0,-100.00,NW,315,4.0,7.0,47,0.00,,,0.00,0.000000,,2013-04-02 05:23:00,
2013-04-02 00:32:00,22.0,5.0,-100.00,NW,315,4.0,7.0,47,0.00,,,0.00,0.000000,,2013-04-02 05:32:00,
2013-04-02 00:43:00,22.0,5.0,-100.00,NW,315,4.0,7.0,47,0.00,,,0.00,0.000000,,2013-04-02 05:43:00,
2013-04-02 00:52:00,22.0,5.0,-100.00,NW,315,4.0,7.0,47,0.00,,,0.00,0.000000,,2013-04-02 05:52:00,
2013-04-02 01:02:00,21.0,6.0,-100.00,WNW,302,3.0,8.0,51,0.00,,,0.00,0.000000,,2013-04-02 06:02:00,
2013-04-02 01:22:00,21.0,6.0,-100.00,WNW,302,3.0,8.0,51,0.00,,,0.00,0.000000,,2013-04-02 06:22:00,
2013-04-02 01:32:00,21.0,6.0,-100.00,WNW,302,3.0,8.0,51,0.00,,,0.00,0.000000,,2013-04-02 06:32:00,
2013-04-02 01:42:00,21.0,6.0,-100.00,WNW,302,3.0,8.0,51,0.00,,,0.00,0.000000,,2013-04-02 06:42:00,
2013-04-02 01:52:00,21.0,6.0,-100.00,WNW,302,3.0,8.0,51,0.00,,,0.00,0.000000,,2013-04-02 06:52:00,
2013-04-02 02:02:00,17.0,5.0,-100.00,NW,320,1.0,8.0,59,0.00,,,0.00,0.000000,,2013-04-02 07:02:00,
2013-04-02 02:32:00,17.0,5.0,-100.00,NW,320,1.0,8.0,59,0.00,,,0.00,0.000000,,2013-04-02 07:32:00,
2013-04-02 02:43:00,17.0,5.0,-100.00,NW,320,1.0,8.0,59,0.00,,,0.00,0.000000,,2013-04-02 07:43:00,
2013-04-02 02:53:00,17.0,5.0,-100.00,NW,320,1.0,8.0,59,0.00,,,0.00,0.000000,,2013-04-02 07:53:00,
2013-04-02 03:02:00,17.0,6.0,-100.00,NW,309,2.0,6.0,62,0.00,,,0.00,0.000000,,2013-04-02 08:02:00,
2013-04-02 03:32:00,17.0,6.0,-100.00,NW,309,2.0,6.0,62,0.00,,,0.00,0.000000,,2013-04-02 08:32:00,
2013-04-02 03:43:00,17.0,6.0,-100.00,NW,309,2.0,6.0,62,0.00,,,0.00,0.000000,,2013-04-02 08:43:00,
2013-04-02 03:52:00,17.0,6.0,-100.00,NW,309,2.0,6.0,62,0.00,,,0.00,0.000000,,2013-04-02 08:52:00,
2013-04-02 04:02:00,14.0,6.0,-100.00,NW,314,2.0,5.0,71,0.00,,,0.00,0.000000,,2013-04-02 09:02:00,
2013-04-02 04:33:00,14.0,6.0,-100.00,NW,314,2.0,5.0,71,0.00,,,0.00,0.000000,,2013-04-02 09:33:00,
2013-04-02 04:43:00,14.0,6.0,-100.00,NW,314,2.0,5.0,71,0.00,,,0.00,0.000000,,2013-04-02 09:43:00,
2013-04-02 04:53:00,14.0,6.0,-100.00,NW,314,2.0,5.0,71,0.00,,,0.00,0.000000,,2013-04-02 09:53:00,
2013-04-02 05:02:00,13.0,7.0,-100.00,WNW,289,2.0,4.0,75,0.00,,,0.00,0.000000,,2013-04-02 10:02:00,
2013-04-02 05:24:00,13.0,7.0,-100.00,WNW,289,2.0,4.0,75,0.00,,,0.00,0.000000,,2013-04-02 10:24:00,
2013-04-02 05:33:00,13.0,7.0,-100.00,WNW,289,2.0,4.0,75,0.00,,,0.00,0.000000,,2013-04-02 10:33:00,
2013-04-02 05:42:00,13.0,7.0,-100.00,WNW,289,2.0,4.0,75,0.00,,,0.00,0.000000,,2013-04-02 10:42:00,
2013-04-02 05:52:00,13.0,7.0,-100.00,WNW,289,2.0,4.0,75,0.00,,,0.00,0.000000,,2013-04-02 10:52:00,
2013-04-02 06:02:00,12.0,6.0,-100.00,WNW,292,3.0,5.0,75,0.00,,,0.00,0.000000,,2013-04-02 11:02:00,
2013-04-02 06:33:00,12.0,6.0,-100.00,WNW,292,3.0,5.0,75,0.00,,,0.00,0.000000,,2013-04-02 11:33:00,
2013-04-02 06:43:00,12.0,6.0,-100.00,WNW,292,3.0,5.0,75,0.00,,,0.00,0.000000,,2013-04-02 11:43:00,
2013-04-02 06:53:00,12.0,6.0,-100.00,WNW,292,3.0,5.0,75,0.00,,,0.00,0.000000,,2013-04-02 11:53:00,
2013-04-02 07:02:00,13.0,6.0,-100.00,WNW,294,3.0,6.0,73,0.00,,,0.00,5.000000,,2013-04-02 12:02:00,
2013-04-02 07:32:00,13.0,6.0,-100.00,WNW,294,3.0,6.0,73,0.00,,,0.00,5.000000,,2013-04-02 12:32:00,
2013-04-02 07:42:00,13.0,6.0,-100.00,WNW,294,3.0,6.0,73,0.00,,,0.00,5.000000,,2013-04-02 12:42:00,
2013-04-02 07:53:00,13.0,6.0,-100.00,WNW,294,3.0,6.0,73,0.00,,,0.00,5.000000,,2013-04-02 12:53:00,
2013-04-02 08:02:00,19.0,9.0,-100.00,NW,304,4.0,6.0,63,0.00,,,0.00,86.000000,,2013-04-02 13:02:00,
2013-04-02 08:33:00,19.0,9.0,-100.00,NW,304,4.0,6.0,63,0.00,,,0.00,86.000000,,2013-04-02 13:33:00,
2013-04-02 08:42:00,19.0,9.0,-100.00,NW,304,4.0,6.0,63,0.00,,,0.00,86.000000,,2013-04-02 13:42:00,
2013-04-02 08:52:00,19.0,9.0,-100.00,NW,304,4.0,6.0,63,0.00,,,0.00,86.000000,,2013-04-02 13:52:00,
2013-04-02 09:02:00,24.0,10.0,-100.00,NW,312,4.0,11.0,54,0.00,,,0.00,321.000000,,2013-04-02 14:02:00,
2013-04-02 09:33:00,24.0,10.0,-100.00,NW,312,4.0,11.0,54,0.00,,,0.00,321.000000,,2013-04-02 14:33:00,
2013-04-02 09:42:00,24.0,10.0,-100.00,NW,312,4.0,11.0,54,0.00,,,0.00,321.000000,,2013-04-02 14:42:00,
2013-04-02 09:52:00,24.0,10.0,-100.00,NW,312,4.0,11.0,54,0.00,,,0.00,321.000000,,2013-04-02 14:52:00,
2013-04-02 10:02:00,28.0,9.0,-100.00,WNW,295,4.0,9.0,45,0.00,,,0.00,499.000000,,2013-04-02 15:02:00,
2013-04-02 10:33:00,28.0,9.0,-100.00,WNW,295,4.0,9.0,45,0.00,,,0.00,499.000000,,2013-04-02 15:33:00,
2013-04-02 10:43:00,28.0,9.0,-100.00,WNW,295,4.0,9.0,45,0.00,,,0.00,499.000000,,2013-04-02 15:43:00,
2013-04-02 10:57:00,28.0,9.0,-100.00,WNW,295,4.0,9.0,45,0.00,,,0.00,499.000000,,2013-04-02 15:57:00,
2013-04-02 11:02:00,32.0,9.0,-100.00,WNW,286,5.0,9.0,37,0.00,,,-99.99,692.000000,,2013-04-02 16:02:00,
2013-04-02 11:39:00,32.0,9.0,-100.00,WNW,286,5.0,9.0,37,0.00,,,-99.99,692.000000,,2013-04-02 16:39:00,
2013-04-02 11:44:00,32.0,9.0,-100.00,WNW,286,5.0,9.0,37,0.00,,,-99.99,692.000000,,2013-04-02 16:44:00,
2013-04-02 11:53:00,32.0,9.0,-100.00,WNW,286,5.0,9.0,37,0.00,,,-99.99,692.000000,,2013-04-02 16:53:00,
2013-04-02 12:02:00,33.0,7.0,-100.00,WNW,286,6.0,14.0,33,0.00,,,0.00,807.000000,,2013-04-02 17:02:00,
2013-04-02 12:35:00,33.0,7.0,-100.00,WNW,286,6.0,14.0,33,0.00,,,0.00,807.000000,,2013-04-02 17:35:00,
2013-04-02 12:43:00,33.0,7.0,-100.00,WNW,286,6.0,14.0,33,0.00,,,0.00,807.000000,,2013-04-02 17:43:00,
2013-04-02 12:55:00,33.0,7.0,-100.00,WNW,286,6.0,14.0,33,0.00,,,0.00,807.000000,,2013-04-02 17:55:00,
2013-04-02 13:02:00,33.0,3.0,-100.00,WNW,300,7.0,15.0,28,0.00,,,0.00,981.000000,,2013-04-02 18:02:00,
2013-04-02 13:35:00,33.0,3.0,-100.00,WNW,300,7.0,15.0,28,0.00,,,0.00,981.000000,,2013-04-02 18:35:00,
2013-04-02 13:43:00,33.0,3.0,-100.00,WNW,300,7.0,15.0,28,0.00,,,0.00,981.000000,,2013-04-02 18:43:00,
2013-04-02 13:57:00,33.0,3.0,-100.00,WNW,300,7.0,15.0,28,0.00,,,0.00,981.000000,,2013-04-02 18:57:00,
2013-04-02 14:02:00,35.0,2.0,-100.00,NW,310,8.0,15.0,24,0.00,,,0.00,987.000000,,2013-04-02 19:02:00,
2013-04-02 14:34:00,35.0,2.0,-100.00,NW,310,8.0,15.0,24,0.00,,,0.00,987.000000,,2013-04-02 19:34:00,
2013-04-02 14:46:00,35.0,2.0,-100.00,NW,310,8.0,15.0,24,0.00,,,0.00,987.000000,,2013-04-02 19:46:00,
2013-04-02 14:56:00,35.0,2.0,-100.00,NW,310,8.0,15.0,24,0.00,,,0.00,987.000000,,2013-04-02 19:56:00,
2013-04-02 15:02:00,36.0,1.0,-100.00,NW,321,7.0,16.0,22,0.00,,,0.00,902.000000,,2013-04-02 20:02:00,
2013-04-02 15:34:00,36.0,1.0,-100.00,NW,321,7.0,16.0,22,0.00,,,0.00,902.000000,,2013-04-02 20:34:00,
2013-04-02 15:44:00,36.0,1.0,-100.00,NW,321,7.0,16.0,22,0.00,,,0.00,902.000000,,2013-04-02 20:44:00,
2013-04-02 15:54:00,36.0,1.0,-100.00,NW,321,7.0,16.0,22,0.00,,,0.00,902.000000,,2013-04-02 20:54:00,
2013-04-02 17:02:00,35.0,1.0,-100.00,NW,314,7.0,16.0,23,-99.99,,,0.00,594.000000,,2013-04-02 22:02:00,
2013-04-02 17:34:00,35.0,1.0,-100.00,NW,314,7.0,16.0,23,-99.99,,,0.00,594.000000,,2013-04-02 22:34:00,
2013-04-02 17:44:00,35.0,1.0,-100.00,NW,314,7.0,16.0,23,-99.99,,,0.00,594.000000,,2013-04-02 22:44:00,
2013-04-02 17:54:00,35.0,1.0,-100.00,NW,314,7.0,16.0,23,-99.99,,,0.00,594.000000,,2013-04-02 22:54:00,
2013-04-02 18:02:00,35.0,2.0,-100.00,NNW,327,7.0,15.0,24,0.00,,,0.00,388.000000,,2013-04-02 23:02:00,
2013-04-02 18:37:00,35.0,2.0,-100.00,NNW,327,7.0,15.0,24,0.00,,,0.00,388.000000,,2013-04-02 23:37:00,
2013-04-02 18:43:00,35.0,2.0,-100.00,NNW,327,7.0,15.0,24,0.00,,,0.00,388.000000,,2013-04-02 23:43:00,
2013-04-02 18:54:00,35.0,2.0,-100.00,NNW,327,7.0,15.0,24,0.00,,,0.00,388.000000,,2013-04-02 23:54:00,
2013-04-02 19:02:00,31.0,0.0,-100.00,NNW,330,6.0,15.0,26,0.00,,,0.00,133.000000,,2013-04-03 00:02:00,
2013-04-02 19:34:00,31.0,0.0,-100.00,NNW,330,6.0,15.0,26,0.00,,,0.00,133.000000,,2013-04-03 00:34:00,
2013-04-02 19:47:00,31.0,0.0,-100.00,NNW,330,6.0,15.0,26,0.00,,,0.00,133.000000,,2013-04-03 00:47:00,
2013-04-02 19:55:00,31.0,0.0,-100.00,NNW,330,6.0,15.0,26,0.00,,,0.00,133.000000,,2013-04-03 00:55:00,
2013-04-02 20:02:00,29.0,1.0,-100.00,NW,319,3.0,14.0,30,0.00,,,0.00,10.000000,,2013-04-03 01:02:00,
2013-04-02 20:34:00,29.0,1.0,-100.00,NW,319,3.0,14.0,30,0.00,,,0.00,10.000000,,2013-04-03 01:34:00,
2013-04-02 20:43:00,29.0,1.0,-100.00,NW,319,3.0,14.0,30,0.00,,,0.00,10.000000,,2013-04-03 01:43:00,
2013-04-02 20:53:00,29.0,1.0,-100.00,NW,319,3.0,14.0,30,0.00,,,0.00,10.000000,,2013-04-03 01:53:00,
2013-04-02 21:02:00,22.0,8.0,-100.00,WNW,290,0.0,6.0,53,0.00,,,0.00,0.000000,,2013-04-03 02:02:00,
2013-04-02 21:34:00,22.0,8.0,-100.00,WNW,290,0.0,6.0,53,0.00,,,0.00,0.000000,,2013-04-03 02:34:00,
2013-04-02 21:44:00,22.0,8.0,-100.00,WNW,290,0.0,6.0,53,0.00,,,0.00,0.000000,,2013-04-03 02:44:00,
2013-04-02 21:53:00,22.0,8.0,-100.00,WNW,290,0.0,6.0,53,0.00,,,0.00,0.000000,,2013-04-03 02:53:00,
2013-04-02 22:02:00,17.0,5.0,-100.00,WNW,295,0.0,2.0,58,0.00,,,0.00,0.000000,,2013-04-03 03:02:00,
2013-04-02 22:23:00,17.0,5.0,-100.00,WNW,295,0.0,2.0,58,0.00,,,0.00,0.000000,,2013-04-03 03:23:00,
2013-04-02 22:38:00,17.0,5.0,-100.00,WNW,295,0.0,2.0,58,0.00,,,0.00,0.000000,,2013-04-03 03:38:00,
2013-04-02 22:44:00,17.0,5.0,-100.00,WNW,295,0.0,2.0,58,0.00,,,0.00,0.000000,,2013-04-03 03:44:00,
2013-04-02 22:54:00,17.0,5.0,-100.00,WNW,295,0.0,2.0,58,0.00,,,0.00,0.000000,,2013-04-03 03:54:00,
2013-04-02 23:02:00,15.0,5.0,-100.00,WNW,287,0.0,2.0,63,0.00,,,0.00,0.000000,,2013-04-03 04:02:00,
2013-04-02 23:23:00,15.0,5.0,-100.00,WNW,287,0.0,2.0,63,0.00,,,0.00,0.000000,,2013-04-03 04:23:00,
2013-04-02 23:33:00,15.0,5.0,-100.00,WNW,287,0.0,2.0,63,0.00,,,0.00,0.000000,,2013-04-03 04:33:00,
2013-04-02 23:43:00,15.0,5.0,-100.00,WNW,287,0.0,2.0,63,0.00,,,0.00,0.000000,,2013-04-03 04:43:00,
2013-04-02 23:53:00,15.0,5.0,-100.00,WNW,287,0.0,2.0,63,0.00,,,0.00,0.000000,,2013-04-03 04:53:00,